Skip to main content

NOAA/GLERL Met Station at Muskegon, MI

Previous 5 days (top of hour only)
See also Previous 3 Hours (2 minute increments)
Jump down to Data
Switch to [English][Metric]
Zoom: Click and drag, Pan: shift-click and drag, Unzoom: double-click, Unzoom All






Note: Speed = mean wind during 2-minute period at top of hour,
Gust = max wind during 2-minute period at top of hour,
Peak = max wind during entire hour.
• See also 5-day windrose plot


NOAA/GLERL Met Station at Muskegon, MI

Previous 5 days (top of hour only)
See also Previous 3 Hours (2 minute increments)
Jump up to Graphs
Switch to [English][Metric]
                  Wind  Wind  Wind   Air   Dew   Rel     Sta   PAR
                   Spd   Gst   Dir  Temp    Pt   Hum    Pres uE/m2/
YYYY-MM-DD   EDT   kts   kts   deg     F     F     %   in Hg   sec
2020-08-07 00:00 -99.0 -99.0   -99   0.0   0.0   0.0    0.00     0
2020-08-06 15:00   8.4   8.9   274  68.2  58.3  70.4   29.51  1822
2020-08-06 14:00   8.0   8.2   268  67.5  58.8  73.3   29.51  1823
2020-08-06 13:00   4.7   5.8   261  68.4  57.8  68.5   29.53  1809
2020-08-06 12:00   4.9   4.9   225  67.6  55.9  65.7   29.52  1795
2020-08-06 11:00   3.7   4.1   205  63.1  56.7  79.1   29.53  1717
2020-08-06 10:00   4.1   5.4   100  67.5  56.0  66.4   29.53  1411
2020-08-06 09:00   5.1   5.8    96  64.2  56.5  75.7   29.53  1000
2020-08-06 08:00   4.7   5.6   118  60.8  55.3  81.9   29.52   714
2020-08-06 07:00   6.0   6.8   107  59.4  55.6  87.2   29.52    69
2020-08-06 06:00   7.6   8.0   116  59.2  55.6  87.7   29.51     2
2020-08-06 05:00   6.2   7.0   107  60.4  56.9  88.1   29.50     2
2020-08-06 04:00   5.4   5.8   108  59.7  56.2  88.1   29.50     2
2020-08-06 03:00   5.8   6.4   118  60.4  57.1  88.5   29.49     2
2020-08-06 02:00   4.7   4.9   115  60.8  57.4  88.5   29.49     2
2020-08-06 01:00   2.7   3.1   126  60.4  57.6  90.3   29.48     2
2020-08-06 00:00   2.9   3.3   154  61.5  54.1  76.2   29.47     2
2020-08-05 23:00   3.3   4.1   168  62.1  55.2  77.9   29.47     2
2020-08-05 22:00   8.0   8.4   185  61.9  57.0  83.9   29.47     2
2020-08-05 21:00   3.1   3.3   202  60.6  56.4  85.8   29.46    23
2020-08-05 20:00   2.1   2.3   199  66.4  58.3  75.0   29.46   858
2020-08-05 19:00   3.5   4.5   213  66.7  58.8  75.2   29.47  1264
2020-08-05 18:00   5.1   5.8   203  65.5  56.9  73.5   29.48  1637
2020-08-05 17:00   3.1   3.3   237  64.9  58.7  80.0   29.48  1272
2020-08-05 16:00   2.5   3.1   209  65.5  57.7  75.6   29.49  1087
2020-08-05 15:00   4.3   4.5   308  66.0  57.0  72.3   29.50  1330
2020-08-05 14:00   2.9   4.1   266  65.1  59.1  80.6   29.49  1985
2020-08-05 13:00   2.3   3.1   276  64.8  57.1  75.9   29.49  1891
2020-08-05 12:00   7.8   8.2   335  63.5  56.5  77.6   29.49  1788
2020-08-05 11:00   4.3   6.2   308  62.2  56.3  80.7   29.47  1725
2020-08-05 10:00   3.7   4.9   222  60.4  52.4  74.5   29.46  1565
2020-08-05 09:00   8.9   9.9   197  55.8  49.7  79.8   29.47  1288
2020-08-05 08:00  13.6  14.2   184  53.2  49.4  86.7   29.46   936
2020-08-05 07:00  10.9  11.9   183  51.3  49.5  93.6   29.45    75
2020-08-05 06:00   8.0   8.4   195  49.6  48.6  96.3   29.45     2
2020-08-05 05:00   4.5   4.7   183  51.4  50.2  95.5   29.44     2
2020-08-05 04:00   0.2   0.6    56  54.1  50.4  87.0   29.44     2
2020-08-05 03:00   2.3   2.5   353  52.9  50.1  90.0   29.43     2
2020-08-05 02:00   2.1   2.5   323  53.4  49.9  87.6   29.44     2
2020-08-05 01:00   5.6   7.2    44  58.6  49.8  72.2   29.43     2
2020-08-05 00:00   9.1  11.7    29  59.5  49.9  70.1   29.43     2
2020-08-04 23:00   5.1   6.8     0  55.4  50.6  83.8   29.43     2
2020-08-04 22:00   7.0   8.2   355  54.7  49.1  81.2   29.43     2
2020-08-04 21:00  13.8  15.7   352  54.1  48.0  79.4   29.41    40
2020-08-04 20:00  12.8  14.4   353  55.9  48.5  75.7   29.40   831
2020-08-04 19:00  14.2  19.4   354  56.8  49.6  76.4   29.39  1329
2020-08-04 18:00  10.3  12.8   341  59.0  52.0  77.3   29.40  1590
2020-08-04 17:00  11.5  14.4   350  59.4  53.0  79.1   29.41  1716
2020-08-04 16:00  11.3  13.8   345  58.5  51.9  78.7   29.41  1765
2020-08-04 15:00  10.1  12.1   350  58.6  50.9  75.3   29.41  1817
2020-08-04 14:00  14.0  15.7   348  56.7  50.7  80.3   29.41  1815
2020-08-04 13:00  11.7  13.0   347  57.6  51.0  78.6   29.40  1816
2020-08-04 12:00  11.5  13.0   347  56.7  51.1  81.3   29.41  1755
2020-08-04 11:00  12.1  13.6   345  55.6  51.7  86.7   29.41  1886
2020-08-04 10:00   8.2  11.9   349  54.9  51.7  89.0   29.41  1627
2020-08-04 09:00   5.6   7.4    44  58.3  53.5  83.9   29.41   669
2020-08-04 08:00   7.8  11.5    34  60.1  53.2  77.7   29.41   897
2020-08-04 07:00   7.2   7.8    11  51.4  50.5  96.7   29.42    77
2020-08-04 06:00   6.4   8.0    18  54.1  52.2  93.2   29.41     2
2020-08-04 05:00   4.9   6.6    29  57.0  53.6  88.1   29.40     2
2020-08-04 04:00   6.8   7.8    52  58.5  54.1  85.1   29.40     2
2020-08-04 03:00   5.4   7.0    31  59.7  54.3  81.9   29.40     2
2020-08-04 02:00   7.2   8.4    42  61.2  54.0  76.9   29.41     2
2020-08-04 01:00   7.2   8.9    67  61.7  53.0  72.7   29.41     2
2020-08-04 00:00  10.5  13.2    45  62.2  53.3  72.1   29.41     2
2020-08-03 23:00   9.1  11.1    45  62.8  54.1  73.0   29.42     2
2020-08-03 22:00  10.7  12.8    35  63.3  54.9  73.7   29.42     2
2020-08-03 21:00  11.3  13.6    42  64.2  56.1  74.7   29.40     7
2020-08-03 20:00  11.5  16.1    45  65.8  57.3  73.7   29.40   186
2020-08-03 19:00   9.5  12.6    41  67.8  58.5  71.7   29.38   342
2020-08-03 18:00  13.0  15.0    28  68.2  58.7  71.2   29.37   789
2020-08-03 17:00  15.9  19.2   354  58.5  53.3  82.6   29.36   934
2020-08-03 16:00  11.7  16.3     6  71.8  59.7  65.3   29.36  1691
2020-08-03 15:00  11.7  14.4    30  66.6  61.7  84.1   29.37  1100
2020-08-03 14:00  14.6  16.1   350  58.8  56.1  90.5   29.38   970
2020-08-03 13:00  11.5  14.0   352  61.7  58.2  88.0   29.38  1033
2020-08-03 12:00  12.4  14.0   352  59.7  57.6  92.6   29.38   697
2020-08-03 11:00   9.3  10.5   345  60.6  57.9  90.7   29.37   856
2020-08-03 10:00   4.7   6.8    51  63.7  60.7  89.9   29.36   464
2020-08-03 09:00   5.6   8.4   357  60.4  59.0  95.0   29.36   312
2020-08-03 08:00   5.2   7.2    42  61.0  59.7  95.5   29.35   232
2020-08-03 07:00   5.6   7.8    48  60.6  59.5  96.0   29.34    22
2020-08-03 06:00   7.0   8.7    50  61.9  58.3  87.9   29.33     2
2020-08-03 05:00   5.6   7.8    10  62.2  58.2  86.4   29.32     2
2020-08-03 04:00   5.4   8.6    32  63.1  58.5  84.5   29.32     2
2020-08-03 03:00   5.4   7.4    33  63.5  59.8  87.7   29.31     2
2020-08-03 02:00   6.6   9.3    40  64.9  61.8  89.5   29.30     2
2020-08-03 01:00   3.3   6.6    52  66.0  62.4  87.8   29.31     2
2020-08-03 00:00   7.6  11.5    33  67.1  62.9  86.2   29.30     2
2020-08-02 23:00   8.9  11.3    45  68.5  63.8  84.7   29.29     2
2020-08-02 22:00   3.9   4.1    31  69.6  63.2  79.8   29.28     2
2020-08-02 21:00   1.7   2.7    80  72.3  62.6  71.0   29.26     8
2020-08-02 20:00   4.5   6.4   355  70.5  65.5  83.9   29.26   179
2020-08-02 19:00  11.5  13.2   355  70.9  64.8  80.8   29.24   293
2020-08-02 18:00   8.4   8.7   331  73.6  68.4  83.6   29.24  1714
2020-08-02 17:00   9.3   9.7   307  74.5  68.1  80.2   29.22  1826
2020-08-02 16:00   6.4   7.0   198  70.2  65.9  86.0   29.20  1181
2020-08-02 15:00   8.7   9.3   193  69.8  64.9  84.2   29.21  1861
2020-08-02 14:00   8.2   9.1   182  70.7  64.4  80.1   29.21  1664
2020-08-02 13:00   4.1   4.5   181  71.1  65.3  81.7   29.21   795
2020-08-02 12:00   1.9   2.3   208  70.3  64.3  80.8   29.20   643
2020-08-02 11:00   1.9   2.3   331  68.9  63.6  83.0   29.20   442
2020-08-02 10:00   5.6   6.0   344  68.9  62.5  79.7   29.19   570
2020-08-02 09:00   9.5  10.5   327  68.2  64.7  88.5   29.17   207
2020-08-02 08:00   6.8   8.2     2  66.2  63.2  89.9   29.17    84
2020-08-02 07:00   6.6   8.9   355  66.4  65.5  96.8   29.16    26
2020-08-02 06:00   7.0   8.4   351  66.4  65.3  96.3   29.16     2
2020-08-02 05:00   1.6   2.1     4  66.9  65.7  95.7   29.16     2
2020-08-02 04:00   2.9   3.7   264  68.2  65.2  90.1   29.16     2
2020-08-02 03:00   2.1   2.9   197  67.3  65.2  92.9   29.16     2
2020-08-02 02:00   2.7   2.9    35  68.4  63.2  83.2   29.17     2
2020-08-02 01:00   3.1   3.5     7  70.5  61.7  73.3   29.18     2
2020-08-02 00:00   2.9   3.7   353  70.9  63.1  76.0   29.19     2
2020-08-01 23:00   4.7   5.6    59  72.7  61.3  67.1   29.20     2
2020-08-01 22:00   8.7  11.1    41  73.6  61.8  66.2   29.20     2
2020-08-01 21:00   8.4  10.7    36  73.8  62.1  66.5   29.20    11
2020-08-01 20:00   8.0   9.7    30  75.0  62.0  63.4   29.21   129